createdAt,value
2022-09-01T00:00:30.282Z,26.30
2022-09-01T00:02:58.695Z,26.30
2022-09-01T00:05:27.315Z,26.20
2022-09-01T00:07:55.507Z,26.30
2022-09-01T00:10:23.587Z,26.20
2022-09-01T00:12:51.765Z,26.20
2022-09-01T00:15:19.862Z,26.20
2022-09-01T00:17:48.477Z,26.20
2022-09-01T00:20:20.229Z,26.20
2022-09-01T00:22:49.072Z,26.20
2022-09-01T00:25:20.707Z,26.20
2022-09-01T00:27:50.148Z,26.20
2022-09-01T00:30:19.662Z,26.20
2022-09-01T00:32:48.083Z,26.20
2022-09-01T00:35:19.007Z,26.20
2022-09-01T00:37:47.238Z,26.20
2022-09-01T00:40:17.735Z,26.10
2022-09-01T00:42:46.313Z,26.20
2022-09-01T00:45:14.254Z,26.10
2022-09-01T00:47:43.449Z,26.10
2022-09-01T00:50:15.517Z,26.20
2022-09-01T00:52:51.660Z,26.20
2022-09-01T00:55:25.827Z,26.10
2022-09-01T00:57:54.136Z,26.10
2022-09-01T01:00:30.162Z,26.10
2022-09-01T01:02:58.814Z,26.10
2022-09-01T01:05:36.904Z,26.10
2022-09-01T01:08:05.450Z,26.10
2022-09-01T01:10:36.960Z,26.10
2022-09-01T01:13:14.686Z,26.00
2022-09-01T01:15:46.690Z,26.00
2022-09-01T01:18:23.000Z,26.00
2022-09-01T01:21:42.461Z,26.00
2022-09-01T01:24:22.473Z,26.00
2022-09-01T01:26:51.314Z,26.00
2022-09-01T01:29:20.566Z,25.90
2022-09-01T01:31:52.572Z,25.80
2022-09-01T01:34:23.085Z,25.70
2022-09-01T01:36:52.313Z,25.60
2022-09-01T01:39:25.809Z,25.40
2022-09-01T01:41:59.132Z,25.40
2022-09-01T01:44:31.667Z,25.30
2022-09-01T01:47:04.789Z,25.30
2022-09-01T01:49:33.937Z,25.30
2022-09-01T01:52:02.393Z,25.20
2022-09-01T01:54:33.073Z,25.30
2022-09-01T01:57:05.213Z,25.30
2022-09-01T01:59:34.662Z,25.20
2022-09-01T02:02:05.295Z,25.20
2022-09-01T02:04:34.692Z,25.20
2022-09-01T02:07:13.624Z,25.20
2022-09-01T02:09:49.443Z,25.20
2022-09-01T02:12:25.840Z,25.20
2022-09-01T02:14:56.245Z,25.30
2022-09-01T02:17:32.116Z,25.30
2022-09-01T02:20:01.196Z,25.30
2022-09-01T02:22:29.288Z,25.30
2022-09-01T02:24:58.162Z,25.40
2022-09-01T02:27:28.592Z,25.40
2022-09-01T02:29:59.746Z,25.40
2022-09-01T02:32:28.058Z,25.30
2022-09-01T02:35:01.609Z,25.30
2022-09-01T02:37:30.652Z,25.30
2022-09-01T02:39:59.954Z,25.30
2022-09-01T02:42:27.987Z,25.30
2022-09-01T02:44:59.366Z,25.30
2022-09-01T02:47:32.445Z,25.30
2022-09-01T02:50:04.355Z,25.30
2022-09-01T02:52:38.049Z,25.20
2022-09-01T02:55:08.221Z,25.20
2022-09-01T02:57:36.550Z,25.20
2022-09-01T03:00:21.275Z,25.30
2022-09-01T03:02:53.731Z,25.20
2022-09-01T03:05:27.626Z,25.20
2022-09-01T03:07:58.921Z,25.20
2022-09-01T03:10:43.221Z,25.10
2022-09-01T03:13:18.412Z,25.10
2022-09-01T03:15:46.915Z,25.00
2022-09-01T03:18:15.948Z,25.10
2022-09-01T03:20:46.952Z,25.10
2022-09-01T03:23:18.317Z,25.00
2022-09-01T03:25:49.619Z,25.00
2022-09-01T03:28:18.207Z,25.00
2022-09-01T03:30:54.032Z,25.00
2022-09-01T03:33:24.346Z,24.90
2022-09-01T03:35:54.133Z,24.90
2022-09-01T03:38:25.307Z,24.90
2022-09-01T03:41:01.381Z,24.80
2022-09-01T03:43:36.087Z,24.80
2022-09-01T03:46:05.657Z,24.80
2022-09-01T03:48:34.130Z,24.80
2022-09-01T03:51:03.599Z,24.80
2022-09-01T03:53:38.207Z,24.90
2022-09-01T03:56:07.811Z,24.80
2022-09-01T03:58:36.357Z,24.80
2022-09-01T04:01:05.671Z,24.80
2022-09-01T04:03:40.800Z,24.80
2022-09-01T04:06:11.144Z,24.80
2022-09-01T04:08:40.006Z,24.80
2022-09-01T04:11:18.231Z,24.80
2022-09-01T04:13:49.252Z,24.80
2022-09-01T04:16:44.787Z,24.80
2022-09-01T04:19:21.297Z,24.80
2022-09-01T04:21:52.112Z,24.80
2022-09-01T04:24:21.137Z,24.80
2022-09-01T04:26:49.974Z,24.80
2022-09-01T04:29:19.762Z,24.80
2022-09-01T04:31:52.524Z,24.80
2022-09-01T04:34:22.822Z,24.80
2022-09-01T04:36:54.914Z,24.80
2022-09-01T04:39:24.447Z,24.80
2022-09-01T04:41:53.132Z,24.80
2022-09-01T04:44:22.577Z,24.80
2022-09-01T04:46:51.145Z,24.80
2022-09-01T04:49:22.796Z,24.80
2022-09-01T04:51:54.727Z,24.80
2022-09-01T04:54:25.303Z,24.80
2022-09-01T04:56:55.612Z,24.80
2022-09-01T04:59:27.722Z,24.80
2022-09-01T05:02:01.023Z,24.80
2022-09-01T05:04:35.839Z,24.90
2022-09-01T05:07:06.204Z,24.90
2022-09-01T05:09:38.805Z,24.90
2022-09-01T05:12:25.419Z,24.90
2022-09-01T05:14:54.455Z,24.90
2022-09-01T05:17:22.567Z,24.90
2022-09-01T05:19:53.027Z,24.90
2022-09-01T05:22:22.543Z,25.00
2022-09-01T05:25:14.212Z,25.00
2022-09-01T05:27:50.029Z,25.00
2022-09-01T05:30:21.134Z,25.10
2022-09-01T05:32:51.055Z,25.10
2022-09-01T05:35:19.317Z,25.10
2022-09-01T05:37:47.432Z,25.10
2022-09-01T05:40:16.691Z,25.10
2022-09-01T05:42:47.019Z,25.10
2022-09-01T05:45:15.735Z,25.10
2022-09-01T05:47:44.218Z,25.10
2022-09-01T05:50:14.699Z,25.20
2022-09-01T05:52:48.402Z,25.30
2022-09-01T05:55:17.092Z,25.40
2022-09-01T05:57:48.381Z,25.50
2022-09-01T06:00:18.682Z,25.70
2022-09-01T06:02:50.202Z,25.80
2022-09-01T06:05:21.735Z,25.90
2022-09-01T06:07:52.661Z,26.00
2022-09-01T06:10:21.541Z,26.00
2022-09-01T06:12:51.121Z,26.10
2022-09-01T06:15:25.346Z,26.20
2022-09-01T06:17:55.093Z,26.20
2022-09-01T06:20:23.421Z,26.20
2022-09-01T06:22:53.600Z,26.30
2022-09-01T06:25:22.370Z,26.40
2022-09-01T06:27:52.911Z,26.40
2022-09-01T06:30:26.798Z,26.50
2022-09-01T06:33:10.974Z,26.60
2022-09-01T06:35:43.024Z,26.60
2022-09-01T06:38:12.545Z,26.70
2022-09-01T06:40:51.188Z,26.80
2022-09-01T06:43:24.198Z,26.80
2022-09-01T06:45:55.153Z,26.90
2022-09-01T06:48:24.878Z,27.00
2022-09-01T06:51:21.041Z,27.10
2022-09-01T06:54:00.141Z,27.10
2022-09-01T06:56:37.111Z,27.20
2022-09-01T06:59:15.983Z,27.30
2022-09-01T07:01:49.972Z,27.40
2022-09-01T07:04:31.158Z,27.50
2022-09-01T07:10:21.278Z,27.70
2022-09-01T07:13:23.027Z,27.70
2022-09-01T07:18:57.987Z,27.90
2022-09-01T07:21:40.978Z,28.00
2022-09-01T07:24:13.538Z,28.00
2022-09-01T07:27:08.495Z,28.10
2022-09-01T07:29:41.577Z,28.20
2022-09-01T07:35:00.921Z,28.10
2022-09-01T07:43:32.825Z,28.40
2022-09-01T07:46:37.358Z,28.60
2022-09-01T07:52:02.305Z,28.90
2022-09-01T07:54:31.892Z,29.00
2022-09-01T07:57:00.044Z,29.20
2022-09-01T07:59:30.062Z,29.20
2022-09-01T08:02:07.136Z,29.20
2022-09-01T08:04:36.270Z,29.30
2022-09-01T08:07:06.357Z,29.20
2022-09-01T08:09:44.009Z,29.40
2022-09-01T08:12:15.308Z,29.50
2022-09-01T08:14:48.381Z,29.60
2022-09-01T08:17:18.106Z,29.70
2022-09-01T08:20:11.125Z,29.70
2022-09-01T08:23:03.861Z,29.70
2022-09-01T08:25:37.738Z,29.90
2022-09-01T08:28:06.637Z,30.00
2022-09-01T08:30:36.082Z,30.10
2022-09-01T08:33:12.460Z,30.10
2022-09-01T08:35:47.577Z,30.20
2022-09-01T08:38:17.312Z,30.30
2022-09-01T08:40:56.839Z,30.40
2022-09-01T08:43:58.383Z,30.60
2022-09-01T08:46:37.995Z,30.60
2022-09-01T08:49:25.843Z,30.70
2022-09-01T08:52:25.510Z,30.60
2022-09-01T08:54:59.100Z,30.70
2022-09-01T08:57:32.826Z,30.70
2022-09-01T09:00:23.735Z,31.10
2022-09-01T09:03:17.511Z,31.20
2022-09-01T09:05:57.083Z,31.50
2022-09-01T09:08:44.782Z,31.60
2022-09-01T09:11:36.667Z,31.40
2022-09-01T09:14:41.839Z,31.40
2022-09-01T09:17:11.529Z,31.50
2022-09-01T09:19:44.419Z,31.70
2022-09-01T09:22:16.545Z,32.00
2022-09-01T09:24:53.133Z,32.10
2022-09-01T09:27:30.192Z,32.30
2022-09-01T09:30:07.301Z,32.40
2022-09-01T09:33:54.317Z,32.70
2022-09-01T09:36:16.113Z,32.90
2022-09-01T09:38:44.234Z,33.10
2022-09-01T09:41:27.051Z,33.30
2022-09-01T09:44:24.842Z,33.50
2022-09-01T09:46:53.682Z,33.50
2022-09-01T09:49:36.135Z,33.70
2022-09-01T09:52:10.558Z,33.70
2022-09-01T09:54:58.928Z,33.80
2022-09-01T09:57:29.440Z,33.90
2022-09-01T10:00:03.870Z,33.80
2022-09-01T10:02:45.344Z,34.00
2022-09-01T10:05:35.130Z,34.40
2022-09-01T10:08:04.228Z,34.70
2022-09-01T10:10:44.627Z,34.90
2022-09-01T10:13:25.950Z,34.90
2022-09-01T10:15:58.691Z,34.60
2022-09-01T10:18:45.418Z,35.00
2022-09-01T10:21:18.337Z,35.00
2022-09-01T10:23:47.859Z,34.40
2022-09-01T10:26:26.253Z,34.70
2022-09-01T10:28:57.148Z,34.70
2022-09-01T10:31:29.555Z,34.20
2022-09-01T10:34:05.553Z,34.00
2022-09-01T10:36:37.798Z,33.70
2022-09-01T10:39:14.011Z,34.00
2022-09-01T10:41:59.552Z,34.90
2022-09-01T10:44:39.364Z,35.60
2022-09-01T10:47:30.458Z,35.60
2022-09-01T10:50:02.341Z,35.10
2022-09-01T10:52:41.613Z,34.40
2022-09-01T10:55:29.276Z,33.50
2022-09-01T11:01:24.875Z,32.60
2022-09-01T11:04:04.231Z,33.40
2022-09-01T11:07:12.890Z,33.80
2022-09-01T11:10:31.221Z,33.90
2022-09-01T11:13:35.584Z,35.20
2022-09-01T11:16:50.059Z,36.60
2022-09-01T11:19:44.164Z,37.20
2022-09-01T11:22:25.973Z,36.80
2022-09-01T11:25:41.720Z,36.70
2022-09-01T11:28:15.773Z,36.10
2022-09-01T11:31:07.466Z,35.90
2022-09-01T11:33:58.903Z,35.70
2022-09-01T11:36:49.087Z,34.80
2022-09-01T11:39:23.503Z,34.50
2022-09-01T11:42:09.851Z,34.60
2022-09-01T11:45:15.497Z,34.90
2022-09-01T11:48:08.308Z,36.20
2022-09-01T11:50:39.637Z,37.40
2022-09-01T11:53:22.405Z,37.80
2022-09-01T11:55:53.613Z,36.60
2022-09-01T11:58:32.227Z,36.10
2022-09-01T12:01:23.618Z,36.00
2022-09-01T12:03:53.885Z,35.80
2022-09-01T12:06:29.830Z,35.30
2022-09-01T12:09:00.818Z,34.60
2022-09-01T12:11:35.071Z,33.80
2022-09-01T12:14:07.653Z,33.00
2022-09-01T12:16:42.782Z,32.60
2022-09-01T12:19:25.302Z,32.20
2022-09-01T12:22:17.637Z,31.90
2022-09-01T12:24:49.313Z,31.60
2022-09-01T12:27:17.730Z,31.40
2022-09-01T12:29:46.775Z,31.30
2022-09-01T12:32:16.329Z,31.20
2022-09-01T12:34:59.809Z,31.10
2022-09-01T12:37:28.749Z,31.00
2022-09-01T12:40:00.267Z,30.80
2022-09-01T12:42:32.441Z,30.70
2022-09-01T12:45:11.360Z,30.60
2022-09-01T12:47:49.978Z,30.50
2022-09-01T12:50:18.418Z,30.40
2022-09-01T12:52:59.147Z,30.30
2022-09-01T12:58:26.190Z,30.20
2022-09-01T13:01:10.153Z,30.30
2022-09-01T13:04:11.222Z,30.40
2022-09-01T13:06:39.676Z,30.80
2022-09-01T13:09:08.069Z,31.10
2022-09-01T13:14:26.038Z,32.50
2022-09-01T13:16:54.155Z,33.70
2022-09-01T13:19:28.834Z,34.80
2022-09-01T13:21:59.514Z,35.60
2022-09-01T13:24:30.408Z,36.50
2022-09-01T13:29:49.168Z,39.20
2022-09-01T13:32:21.604Z,40.40
2022-09-01T13:34:52.658Z,39.90
2022-09-01T13:37:21.976Z,39.00
2022-09-01T13:39:50.744Z,38.30
2022-09-01T13:42:19.128Z,38.60
2022-09-01T13:44:49.679Z,39.00
2022-09-01T13:47:35.194Z,39.40
2022-09-01T13:50:07.069Z,38.50
2022-09-01T13:52:38.533Z,37.80
2022-09-01T13:55:08.722Z,37.70
2022-09-01T13:57:37.036Z,37.70
2022-09-01T14:00:12.073Z,37.50
2022-09-01T14:02:49.596Z,37.50
2022-09-01T14:05:21.384Z,37.60
2022-09-01T14:07:50.134Z,37.50
2022-09-01T14:10:19.593Z,37.10
2022-09-01T14:12:48.355Z,37.00
2022-09-01T14:15:23.722Z,36.60
2022-09-01T14:17:57.899Z,36.50
2022-09-01T14:20:30.532Z,35.90
2022-09-01T14:23:01.413Z,35.10
2022-09-01T14:25:29.764Z,34.40
2022-09-01T14:27:58.258Z,34.00
2022-09-01T14:30:31.709Z,34.00
2022-09-01T14:33:02.186Z,33.90
2022-09-01T14:35:34.342Z,33.70
2022-09-01T14:38:03.401Z,33.40
2022-09-01T14:40:31.417Z,33.20
2022-09-01T14:42:59.522Z,33.20
2022-09-01T14:45:31.544Z,33.10
2022-09-01T14:48:01.671Z,33.00
2022-09-01T14:50:32.829Z,33.00
2022-09-01T14:53:03.081Z,33.00
2022-09-01T14:55:32.658Z,32.90
2022-09-01T14:58:01.367Z,32.60
2022-09-01T15:00:30.862Z,32.50
2022-09-01T15:02:59.416Z,32.50
2022-09-01T15:05:27.627Z,32.60
2022-09-01T15:07:56.200Z,32.60
2022-09-01T15:10:26.684Z,32.70
2022-09-01T15:13:00.101Z,32.90
2022-09-01T15:15:29.539Z,32.90
2022-09-01T15:17:58.109Z,32.90
2022-09-01T15:20:45.402Z,32.80
2022-09-01T15:23:20.404Z,32.80
2022-09-01T15:25:52.484Z,32.70
2022-09-01T15:28:21.268Z,32.50
2022-09-01T15:30:50.542Z,32.20
2022-09-01T15:33:22.103Z,32.10
2022-09-01T15:35:50.245Z,32.20
2022-09-01T15:38:18.516Z,32.20
2022-09-01T15:40:57.732Z,32.20
2022-09-01T15:43:28.587Z,32.00
2022-09-01T15:45:58.740Z,32.00
2022-09-01T15:48:29.194Z,32.00
2022-09-01T15:51:18.009Z,32.10
2022-09-01T15:53:46.170Z,32.00
2022-09-01T15:56:14.292Z,31.80
2022-09-01T15:59:00.093Z,31.60
2022-09-01T16:01:31.273Z,31.50
2022-09-01T16:03:59.983Z,31.50
2022-09-01T16:06:28.857Z,31.60
2022-09-01T16:08:57.234Z,31.70
2022-09-01T16:11:28.577Z,31.80
2022-09-01T16:13:57.436Z,31.90
2022-09-01T16:16:25.341Z,31.90
2022-09-01T16:19:02.697Z,31.80
2022-09-01T16:21:39.396Z,31.70
2022-09-01T16:24:13.037Z,31.70
2022-09-01T16:26:44.876Z,31.50
2022-09-01T16:29:29.607Z,31.20
2022-09-01T16:31:57.953Z,31.00
2022-09-01T16:34:28.390Z,30.80
2022-09-01T16:37:25.612Z,30.60
2022-09-01T16:40:35.986Z,30.50
2022-09-01T16:43:33.132Z,30.40
2022-09-01T16:46:51.392Z,30.30
2022-09-01T16:49:54.171Z,30.10
2022-09-01T16:52:29.962Z,30.10
2022-09-01T16:55:29.691Z,30.00
2022-09-01T16:58:04.772Z,29.80
2022-09-01T17:00:58.348Z,29.60
2022-09-01T17:03:42.691Z,29.50
2022-09-01T17:06:15.512Z,29.40
2022-09-01T17:08:55.882Z,29.40
2022-09-01T17:11:35.168Z,29.40
2022-09-01T17:14:06.552Z,29.30
2022-09-01T17:16:42.780Z,29.20
2022-09-01T17:19:17.934Z,29.20
2022-09-01T17:21:54.485Z,29.10
2022-09-01T17:24:34.033Z,29.00
2022-09-01T17:27:26.889Z,29.00
2022-09-01T17:29:57.528Z,28.90
2022-09-01T17:32:56.292Z,28.80
2022-09-01T17:35:41.837Z,28.70
2022-09-01T17:38:28.974Z,28.70
2022-09-01T17:41:05.900Z,28.60
2022-09-01T17:43:58.352Z,28.50
2022-09-01T17:46:50.333Z,28.40
2022-09-01T17:49:29.268Z,28.40
2022-09-01T17:52:06.412Z,28.30
2022-09-01T17:54:46.573Z,28.20
2022-09-01T17:57:26.778Z,28.00
2022-09-01T18:00:48.421Z,27.90
2022-09-01T18:03:46.162Z,27.70
2022-09-01T18:07:02.636Z,27.60
2022-09-01T18:09:32.638Z,27.40
2022-09-01T18:12:10.469Z,27.40
2022-09-01T18:14:42.578Z,27.30
2022-09-01T18:17:33.272Z,27.30
2022-09-01T18:20:17.929Z,27.20
2022-09-01T18:25:39.399Z,27.20
2022-09-01T18:28:08.210Z,27.20
2022-09-01T18:30:56.066Z,27.10
2022-09-01T18:33:39.908Z,27.10
2022-09-01T18:36:26.265Z,27.20
2022-09-01T18:39:13.559Z,27.20
2022-09-01T18:42:08.773Z,27.20
2022-09-01T18:44:55.690Z,27.20
2022-09-01T18:47:55.887Z,27.20
2022-09-01T18:50:39.709Z,27.20
2022-09-01T18:53:29.318Z,27.10
2022-09-01T18:56:15.069Z,27.10
2022-09-01T18:59:09.606Z,27.10
2022-09-01T19:01:45.040Z,27.10
2022-09-01T19:04:38.163Z,27.00
2022-09-01T19:07:23.161Z,27.10
2022-09-01T19:10:10.268Z,27.00
2022-09-01T19:12:54.771Z,27.00
2022-09-01T19:15:30.464Z,26.90
2022-09-01T19:18:04.772Z,26.80
2022-09-01T19:20:56.745Z,26.70
2022-09-01T19:23:51.142Z,26.70
2022-09-01T19:26:26.291Z,26.60
2022-09-01T19:29:00.922Z,26.60
2022-09-01T19:31:37.091Z,26.60
2022-09-01T19:34:10.106Z,26.60
2022-09-01T19:36:53.578Z,26.50
2022-09-01T19:39:35.283Z,26.50
2022-09-01T19:42:34.686Z,26.50
2022-09-01T19:45:21.211Z,26.50
2022-09-01T19:48:10.484Z,26.50
2022-09-01T19:50:57.051Z,26.50
2022-09-01T19:53:36.950Z,26.50
2022-09-01T19:56:17.682Z,26.50
2022-09-01T19:59:00.742Z,26.50
2022-09-01T20:02:00.814Z,26.40
2022-09-01T20:04:34.839Z,26.40
2022-09-01T20:07:03.955Z,26.30
2022-09-01T20:09:54.198Z,26.30
2022-09-01T20:12:42.442Z,26.20
2022-09-01T20:15:36.993Z,26.20
2022-09-01T20:18:09.314Z,26.10
2022-09-01T20:20:46.550Z,26.10
2022-09-01T20:23:26.008Z,26.10
2022-09-01T20:26:03.357Z,26.10
2022-09-01T20:29:01.721Z,26.00
2022-09-01T20:31:46.275Z,26.00
2022-09-01T20:34:58.896Z,26.00
2022-09-01T20:37:46.873Z,26.00
2022-09-01T20:40:31.220Z,25.90
2022-09-01T20:43:24.335Z,25.90
2022-09-01T20:45:52.923Z,25.90
2022-09-01T20:48:25.565Z,25.90
2022-09-01T20:50:56.373Z,25.80
2022-09-01T20:53:45.653Z,25.80
2022-09-01T20:56:26.342Z,25.80
2022-09-01T20:59:25.669Z,25.70
2022-09-01T21:02:36.370Z,25.80
2022-09-01T21:05:44.089Z,25.70
2022-09-01T21:08:25.252Z,25.70
2022-09-01T21:10:59.408Z,25.60
2022-09-01T21:13:53.516Z,25.70
2022-09-01T21:16:49.407Z,25.60
2022-09-01T21:19:34.581Z,25.70
2022-09-01T21:22:11.744Z,25.70
2022-09-01T21:24:42.841Z,25.60
2022-09-01T21:27:37.208Z,25.60
2022-09-01T21:30:10.144Z,25.60
2022-09-01T21:32:39.065Z,25.50
2022-09-01T21:35:14.632Z,25.50
2022-09-01T21:37:42.841Z,25.50
2022-09-01T21:40:13.054Z,25.40
2022-09-01T21:42:47.940Z,25.40
2022-09-01T21:45:18.132Z,25.30
2022-09-01T21:47:48.089Z,25.30
2022-09-01T21:50:20.899Z,25.20
2022-09-01T21:52:49.881Z,25.20
2022-09-01T21:55:22.557Z,25.20
2022-09-01T21:57:52.731Z,25.20
2022-09-01T22:00:25.920Z,25.20
2022-09-01T22:02:54.625Z,25.20
2022-09-01T22:05:22.898Z,25.20
2022-09-01T22:07:51.055Z,25.10
2022-09-01T22:10:21.530Z,25.10
2022-09-01T22:12:50.530Z,25.10
2022-09-01T22:15:21.580Z,25.00
2022-09-01T22:17:50.391Z,25.00
2022-09-01T22:20:20.186Z,25.00
2022-09-01T22:22:48.601Z,24.90
2022-09-01T22:25:20.611Z,24.80
2022-09-01T22:27:49.739Z,24.80
2022-09-01T22:30:19.035Z,24.80
2022-09-01T22:32:48.308Z,24.80
2022-09-01T22:35:17.569Z,24.80
2022-09-01T22:37:46.821Z,24.80
2022-09-01T22:40:16.354Z,24.80
2022-09-01T22:42:44.800Z,24.80
2022-09-01T22:45:15.357Z,24.80
2022-09-01T22:47:43.507Z,24.80
2022-09-01T22:50:12.391Z,24.80
2022-09-01T22:52:40.984Z,24.80
2022-09-01T22:55:10.403Z,24.70
2022-09-01T22:57:39.223Z,24.70
2022-09-01T23:00:09.967Z,24.70
2022-09-01T23:02:38.426Z,24.60
2022-09-01T23:05:07.312Z,24.70
2022-09-01T23:07:39.706Z,24.70
2022-09-01T23:10:09.914Z,24.70
2022-09-01T23:12:38.706Z,24.70
2022-09-01T23:15:07.876Z,24.60
2022-09-01T23:17:40.126Z,24.60
2022-09-01T23:20:13.391Z,24.60
2022-09-01T23:22:43.649Z,24.60
2022-09-01T23:25:14.590Z,24.70
2022-09-01T23:27:43.226Z,25.20
2022-09-01T23:30:13.731Z,25.90
2022-09-01T23:32:41.893Z,26.60
2022-09-01T23:35:10.738Z,27.30
2022-09-01T23:37:39.191Z,27.80
2022-09-01T23:40:08.483Z,28.40
2022-09-01T23:42:36.701Z,28.90
2022-09-01T23:45:06.641Z,29.20
2022-09-01T23:47:35.990Z,29.50
2022-09-01T23:50:05.159Z,29.60
2022-09-01T23:52:33.376Z,29.70
2022-09-01T23:55:03.818Z,29.20
2022-09-01T23:57:32.521Z,29.00
